Time;durP1;ratioP1;P1;durP2;ratioP2;P2;SDS_P1;SDS_P2;PMS_P1;PMS_P2;Temp;Humidity;BMP_temperature;BMP_pressure;BME280_temperature;BME280_humidity;BME280_pressure;Samples;Min_cycle;Max_cycle;Signal;HPM_P1;HPM_P2
2020/12/15 00:00:47;;;;;;;4.57;1.17;;;7.50;99.90;;;;;;5006878;28;20557;-90
2020/12/15 00:03:19;;;;;;;5.37;1.30;;;7.50;99.90;;;;;;4990293;28;20274;-89
2020/12/15 00:05:50;;;;;;;5.97;0.93;;;7.50;99.90;;;;;;5007952;28;20207;-90
2020/12/15 00:08:19;;;;;;;7.83;1.40;;;7.50;99.90;;;;;;5007155;28;20265;-90
2020/12/15 00:10:52;;;;;;;7.67;1.47;;;7.50;99.90;;;;;;5005639;28;20206;-90
2020/12/15 00:13:22;;;;;;;6.83;1.93;;;7.40;99.90;;;;;;5005644;28;20199;-90
2020/12/15 00:15:52;;;;;;;4.73;1.23;;;7.30;99.90;;;;;;5007817;28;20210;-90
2020/12/15 00:18:23;;;;;;;4.27;1.30;;;7.20;99.90;;;;;;5007884;28;20269;-90
2020/12/15 00:20:54;;;;;;;6.17;1.60;;;7.10;99.90;;;;;;5006500;28;20202;-90
2020/12/15 00:23:25;;;;;;;3.90;1.20;;;7.10;99.90;;;;;;5004906;28;20206;-91
2020/12/15 00:25:56;;;;;;;9.03;1.43;;;7.00;99.90;;;;;;5008695;28;20206;-89
2020/12/15 00:28:27;;;;;;;6.60;1.00;;;7.00;99.90;;;;;;5007039;28;20252;-88
2020/12/15 00:30:58;;;;;;;6.27;1.60;;;7.00;99.90;;;;;;4989752;28;20244;-89
2020/12/15 00:33:30;;;;;;;9.30;1.60;;;7.00;99.90;;;;;;4987401;28;20270;-90
2020/12/15 00:36:01;;;;;;;7.10;1.27;;;7.00;99.90;;;;;;5002285;28;20270;-90
2020/12/15 00:38:32;;;;;;;8.60;1.50;;;7.00;99.90;;;;;;4987707;28;20321;-89
2020/12/15 00:41:03;;;;;;;6.00;1.40;;;7.00;99.90;;;;;;4987656;28;20199;-88
2020/12/15 00:43:34;;;;;;;7.80;1.73;;;7.00;99.90;;;;;;4987547;28;20207;-89
2020/12/15 00:46:04;;;;;;;10.13;1.73;;;6.90;99.90;;;;;;4989808;28;20230;-89
2020/12/15 00:48:35;;;;;;;8.40;1.60;;;6.90;99.90;;;;;;5005248;28;20234;-89
2020/12/15 00:51:07;;;;;;;13.43;2.27;;;6.90;99.90;;;;;;4987564;28;20214;-89
2020/12/15 00:53:37;;;;;;;9.07;1.70;;;6.80;99.90;;;;;;5004673;28;20635;-89
2020/12/15 00:56:09;;;;;;;13.80;2.53;;;6.80;99.90;;;;;;4969827;28;20203;-89
2020/12/15 00:58:39;;;;;;;9.20;2.13;;;6.90;99.90;;;;;;4986484;28;20207;-89
2020/12/15 01:01:11;;;;;;;7.20;1.90;;;7.00;99.90;;;;;;4986289;28;20205;-89
2020/12/15 01:03:44;;;;;;;7.00;1.77;;;7.10;99.90;;;;;;4996729;28;20278;-90
2020/12/15 01:06:14;;;;;;;10.13;2.03;;;7.10;99.90;;;;;;5006292;28;20233;-89
2020/12/15 01:08:45;;;;;;;5.40;1.60;;;7.00;99.90;;;;;;5007404;28;20237;-90
2020/12/15 01:11:20;;;;;;;8.20;1.43;;;7.00;99.90;;;;;;4990233;28;20221;-91
2020/12/15 01:13:51;;;;;;;7.17;1.70;;;6.90;99.90;;;;;;4968911;28;20215;-91
2020/12/15 01:16:22;;;;;;;5.57;1.50;;;6.80;99.90;;;;;;4987184;28;20218;-90
2020/12/15 01:18:54;;;;;;;5.47;1.30;;;6.70;99.90;;;;;;4994801;28;20210;-91
2020/12/15 01:21:28;;;;;;;6.43;1.30;;;6.70;99.90;;;;;;5007500;28;20560;-89
2020/12/15 01:23:59;;;;;;;8.37;1.87;;;6.70;99.90;;;;;;5005219;28;20613;-89
2020/12/15 01:26:29;;;;;;;8.80;1.93;;;6.70;99.90;;;;;;5005674;28;20210;-89
2020/12/15 01:28:59;;;;;;;8.90;2.70;;;6.60;99.90;;;;;;5008812;28;20234;-89
2020/12/15 01:31:31;;;;;;;7.43;2.50;;;6.50;99.90;;;;;;5010166;28;20218;-90
2020/12/15 01:34:03;;;;;;;7.77;2.67;;;6.40;99.90;;;;;;5006180;28;20198;-89
2020/12/15 01:36:34;;;;;;;10.90;4.47;;;6.30;99.90;;;;;;5003306;28;20265;-90
2020/12/15 01:39:05;;;;;;;13.63;4.33;;;6.20;99.90;;;;;;5002927;28;20650;-90
2020/12/15 01:41:35;;;;;;;13.13;3.97;;;6.20;99.90;;;;;;5002845;28;20202;-94
2020/12/15 01:44:06;;;;;;;15.43;5.13;;;6.10;99.90;;;;;;5000744;28;20565;-90
2020/12/15 01:46:37;;;;;;;8.13;3.50;;;6.10;99.90;;;;;;4995548;28;20202;-87
2020/12/15 01:49:09;;;;;;;14.83;4.37;;;6.10;99.90;;;;;;4995434;28;20265;-89
2020/12/15 01:51:41;;;;;;;10.77;3.70;;;6.10;99.90;;;;;;4995311;28;20213;-88
2020/12/15 01:54:11;;;;;;;12.33;3.13;;;6.10;99.90;;;;;;4996698;28;20202;-88
2020/12/15 01:56:42;;;;;;;11.60;3.03;;;6.00;99.90;;;;;;4996357;28;20711;-88
2020/12/15 01:59:14;;;;;;;12.60;3.57;;;6.10;99.90;;;;;;4995950;28;20210;-88
2020/12/15 02:01:46;;;;;;;7.40;2.70;;;6.10;99.90;;;;;;4995740;28;20226;-90
2020/12/15 02:04:18;;;;;;;10.03;2.53;;;6.10;99.90;;;;;;4996685;28;20233;-89
2020/12/15 02:06:50;;;;;;;7.47;2.87;;;6.20;99.90;;;;;;4996161;28;20230;-88
2020/12/15 02:09:21;;;;;;;11.50;3.47;;;6.10;99.90;;;;;;4996658;28;20764;-88
2020/12/15 02:11:52;;;;;;;12.37;3.30;;;6.10;99.90;;;;;;4995514;28;20237;-89
2020/12/15 02:14:23;;;;;;;12.77;3.13;;;6.10;99.90;;;;;;4996199;28;20230;-89
2020/12/15 02:16:53;;;;;;;9.90;2.80;;;6.10;99.90;;;;;;4996835;28;20221;-89
2020/12/15 02:19:24;;;;;;;9.40;3.33;;;6.00;99.90;;;;;;4998758;28;20206;-90
2020/12/15 02:21:57;;;;;;;11.03;2.97;;;6.00;99.90;;;;;;4996738;28;20202;-89
2020/12/15 02:24:31;;;;;;;9.60;2.80;;;6.00;99.90;;;;;;4998402;28;20241;-90
2020/12/15 02:27:01;;;;;;;11.40;3.07;;;6.00;99.90;;;;;;4999608;28;20214;-89
2020/12/15 02:29:31;;;;;;;11.87;3.47;;;6.00;99.90;;;;;;5000072;28;20266;-89
2020/12/15 02:32:02;;;;;;;14.23;3.77;;;6.00;99.90;;;;;;4983813;28;20241;-89
2020/12/15 02:34:33;;;;;;;9.33;3.43;;;6.10;99.90;;;;;;4985767;28;20210;-88
2020/12/15 02:37:10;;;;;;;8.43;3.33;;;6.00;99.90;;;;;;5011318;28;20227;-88
2020/12/15 02:39:42;;;;;;;16.30;3.67;;;6.00;99.90;;;;;;5005701;28;20231;-89
2020/12/15 02:42:12;;;;;;;10.90;3.53;;;6.00;99.90;;;;;;4997933;28;20199;-90
2020/12/15 02:44:43;;;;;;;15.17;3.37;;;6.00;99.90;;;;;;5009489;28;20228;-89
2020/12/15 02:47:17;;;;;;;17.80;3.73;;;5.90;99.90;;;;;;5056085;23;20241;-90
2020/12/15 02:49:48;;;;;;;17.43;5.00;;;5.80;99.90;;;;;;5009748;28;20306;-90
2020/12/15 02:52:21;;;;;;;14.00;3.30;;;5.90;99.90;;;;;;5010908;28;20248;-90
2020/12/15 02:54:52;;;;;;;10.60;3.53;;;5.80;99.90;;;;;;5012010;28;20209;-89
2020/12/15 02:57:26;;;;;;;13.53;3.57;;;5.90;99.90;;;;;;5012293;28;20205;-89
2020/12/15 02:59:56;;;;;;;11.30;3.33;;;5.90;99.90;;;;;;5004877;28;20201;-89
2020/12/15 03:02:27;;;;;;;8.47;3.40;;;5.90;99.90;;;;;;5000861;28;20246;-90
2020/12/15 03:04:58;;;;;;;9.43;3.47;;;5.80;99.90;;;;;;5004873;28;20198;-89
2020/12/15 03:07:29;;;;;;;14.60;3.33;;;5.90;99.90;;;;;;4996294;28;20206;-89
2020/12/15 03:10:00;;;;;;;12.17;3.00;;;5.90;99.90;;;;;;5008881;28;20273;-88
2020/12/15 03:12:31;;;;;;;8.47;3.17;;;5.90;99.90;;;;;;5011832;28;20232;-89
2020/12/15 03:15:03;;;;;;;12.93;2.77;;;6.00;99.90;;;;;;4994205;28;20319;-89
2020/12/15 03:17:36;;;;;;;8.03;2.30;;;6.00;99.90;;;;;;4998712;28;20241;-89
2020/12/15 03:20:08;;;;;;;11.87;3.10;;;6.10;99.90;;;;;;4998906;28;20292;-89
2020/12/15 03:22:40;;;;;;;8.67;3.27;;;6.10;99.90;;;;;;4989237;28;20198;-89
2020/12/15 03:25:11;;;;;;;11.40;3.17;;;6.10;99.90;;;;;;4989391;28;20233;-90
2020/12/15 03:27:47;;;;;;;8.53;2.63;;;6.10;99.90;;;;;;4983275;28;20229;-89
2020/12/15 03:30:19;;;;;;;10.40;3.23;;;6.10;99.90;;;;;;5001355;28;20416;-90
2020/12/15 03:32:50;;;;;;;9.73;4.17;;;6.10;99.90;;;;;;5008854;28;20213;-89
2020/12/15 03:35:22;;;;;;;14.40;3.10;;;6.10;99.90;;;;;;5000651;28;20210;-89
2020/12/15 03:37:56;;;;;;;11.70;3.63;;;6.10;99.90;;;;;;5000733;28;20202;-89
2020/12/15 03:40:27;;;;;;;10.67;3.40;;;6.00;99.90;;;;;;4997325;28;20224;-89
2020/12/15 03:42:58;;;;;;;15.17;3.83;;;6.00;99.90;;;;;;5002320;28;20272;-88
2020/12/15 03:45:30;;;;;;;8.67;3.37;;;6.00;99.90;;;;;;4994620;28;20273;-88
2020/12/15 03:48:01;;;;;;;9.13;2.93;;;6.00;99.90;;;;;;4994241;28;20210;-90
2020/12/15 03:50:32;;;;;;;11.97;3.23;;;6.00;99.90;;;;;;5014179;28;20296;-88
2020/12/15 03:53:04;;;;;;;10.83;3.43;;;6.00;99.90;;;;;;5004035;28;20260;-88
2020/12/15 03:55:35;;;;;;;11.73;3.30;;;6.00;99.90;;;;;;5016532;28;20213;-88
2020/12/15 03:58:06;;;;;;;12.13;3.00;;;5.90;99.90;;;;;;5004475;28;20202;-88
2020/12/15 04:00:37;;;;;;;9.73;3.00;;;5.90;99.90;;;;;;5014813;28;20250;-90
2020/12/15 04:03:08;;;;;;;8.40;3.00;;;5.90;99.90;;;;;;5030544;28;20229;-89
2020/12/15 04:05:39;;;;;;;6.40;2.80;;;5.90;99.90;;;;;;4984238;28;20206;-89
2020/12/15 04:08:11;;;;;;;10.20;2.43;;;6.00;99.90;;;;;;5014239;28;20205;-89
2020/12/15 04:10:43;;;;;;;11.80;3.30;;;6.00;99.90;;;;;;5005582;28;20237;-86
2020/12/15 04:13:22;;;;;;;9.47;3.13;;;6.00;99.90;;;;;;5012181;28;20198;-92
2020/12/15 04:15:53;;;;;;;8.37;3.37;;;6.00;99.90;;;;;;5013473;28;20266;-89
2020/12/15 04:18:25;;;;;;;14.23;3.27;;;6.00;99.90;;;;;;5018888;28;20202;-89
2020/12/15 04:21:10;;;;;;;6.00;2.37;;;6.10;99.90;;;;;;5013294;28;20207;-89
2020/12/15 04:23:43;;;;;;;8.83;3.00;;;6.20;99.90;;;;;;5014382;28;20347;-89
2020/12/15 04:26:13;;;;;;;8.03;2.40;;;6.20;99.90;;;;;;4999384;28;20655;-90
2020/12/15 04:28:44;;;;;;;6.67;2.50;;;6.20;99.90;;;;;;4998942;28;20658;-91
2020/12/15 04:31:14;;;;;;;7.93;2.30;;;6.20;99.90;;;;;;5011081;28;20202;-91
2020/12/15 04:33:45;;;;;;;8.50;2.73;;;6.30;99.90;;;;;;5013518;28;20233;-91
2020/12/15 04:36:16;;;;;;;7.70;2.07;;;6.30;99.90;;;;;;5005412;28;20288;-90
2020/12/15 04:38:48;;;;;;;10.90;2.37;;;6.30;99.90;;;;;;5001126;28;20211;-89
2020/12/15 04:41:20;;;;;;;6.40;2.17;;;6.30;99.90;;;;;;5000341;28;20202;-89
2020/12/15 04:43:51;;;;;;;7.07;2.20;;;6.30;99.90;;;;;;5015198;28;20580;-90
2020/12/15 04:46:23;;;;;;;6.63;2.20;;;6.40;99.90;;;;;;4999237;28;20727;-90
2020/12/15 04:49:04;;;;;;;6.40;2.00;;;6.40;99.90;;;;;;5008702;28;20229;-90
2020/12/15 04:51:51;;;;;;;6.30;2.20;;;6.40;99.90;;;;;;5004462;28;20206;-90
2020/12/15 04:54:31;;;;;;;10.33;2.70;;;6.40;99.90;;;;;;4999500;28;20214;-89
2020/12/15 04:57:04;;;;;;;6.17;1.73;;;6.50;99.90;;;;;;5003995;28;20310;-92
2020/12/15 04:59:38;;;;;;;11.43;2.80;;;6.50;99.90;;;;;;5005725;28;20549;-91
2020/12/15 05:02:09;;;;;;;4.93;2.00;;;6.40;99.90;;;;;;5019501;28;20209;-90
2020/12/15 05:04:42;;;;;;;7.30;2.27;;;6.50;99.90;;;;;;5014576;28;20262;-91
2020/12/15 05:07:13;;;;;;;5.33;2.17;;;6.50;99.90;;;;;;5016782;28;20252;-91
2020/12/15 05:09:49;;;;;;;3.60;1.77;;;6.50;99.90;;;;;;4998854;28;20268;-89
2020/12/15 05:12:21;;;;;;;6.37;1.93;;;6.50;99.90;;;;;;5000827;28;20206;-89
2020/12/15 05:14:53;;;;;;;5.13;2.03;;;6.50;99.90;;;;;;5011823;28;20229;-91
2020/12/15 05:17:25;;;;;;;7.43;1.87;;;6.40;99.90;;;;;;5015046;28;20213;-90
2020/12/15 05:19:58;;;;;;;9.97;2.10;;;6.40;99.90;;;;;;5015062;28;20206;-90
2020/12/15 05:22:51;;;;;;;8.53;2.00;;;6.40;99.90;;;;;;5014673;28;20237;-90
2020/12/15 05:25:29;;;;;;;6.40;2.60;;;6.40;99.90;;;;;;5015924;28;20206;-88
2020/12/15 05:28:02;;;;;;;7.73;2.00;;;6.30;99.90;;;;;;5003266;28;20208;-89
2020/12/15 05:30:33;;;;;;;5.77;1.93;;;6.30;99.90;;;;;;4984672;28;20434;-90
2020/12/15 05:33:15;;;;;;;6.73;1.80;;;6.30;99.90;;;;;;4983915;28;20238;-89
2020/12/15 05:35:46;;;;;;;7.00;2.17;;;6.30;99.90;;;;;;5007371;28;20280;-89
2020/12/15 05:38:19;;;;;;;7.20;2.33;;;6.30;99.90;;;;;;5012241;28;20634;-90
2020/12/15 05:40:53;;;;;;;5.87;2.30;;;6.20;99.90;;;;;;4993970;28;20210;-88
2020/12/15 05:43:28;;;;;;;9.83;2.53;;;6.30;99.90;;;;;;5015851;28;20201;-86
2020/12/15 05:46:10;;;;;;;5.07;1.93;;;6.30;99.90;;;;;;4987541;28;20202;-88
2020/12/15 05:48:44;;;;;;;10.87;2.33;;;6.20;99.90;;;;;;5002692;28;20201;-89
2020/12/15 05:51:17;;;;;;;8.00;2.27;;;6.30;99.90;;;;;;4991423;28;20198;-89
2020/12/15 05:53:49;;;;;;;5.93;2.17;;;6.30;99.90;;;;;;5008964;28;20293;-90
2020/12/15 05:56:24;;;;;;;7.90;2.27;;;6.30;99.90;;;;;;5009890;28;20206;-89
2020/12/15 05:58:55;;;;;;;7.27;2.00;;;6.40;99.90;;;;;;5010956;28;20225;-88
2020/12/15 06:01:26;;;;;;;7.70;1.93;;;6.30;99.90;;;;;;5022276;28;20225;-89
2020/12/15 06:03:58;;;;;;;8.43;2.07;;;6.30;99.90;;;;;;5015097;28;20245;-88
2020/12/15 06:06:30;;;;;;;4.67;1.80;;;6.30;99.90;;;;;;5007946;28;20241;-88
2020/12/15 06:09:03;;;;;;;4.17;1.90;;;6.30;99.90;;;;;;5004970;28;20238;-89
2020/12/15 06:11:40;;;;;;;6.27;2.03;;;6.30;99.90;;;;;;4994223;28;20206;-90
2020/12/15 06:14:13;;;;;;;4.07;1.73;;;6.40;99.90;;;;;;5015039;28;20228;-89
2020/12/15 06:16:44;;;;;;;6.10;2.10;;;6.40;99.90;;;;;;5005226;28;20280;-87
2020/12/15 06:19:30;;;;;;;6.70;2.00;;;6.40;99.90;;;;;;5005091;28;20252;-89
2020/12/15 06:22:02;;;;;;;11.40;2.10;;;6.40;99.90;;;;;;5010442;28;20206;-89
2020/12/15 06:24:40;;;;;;;8.73;2.17;;;6.40;99.90;;;;;;5019105;28;20213;-90
2020/12/15 06:27:13;;;;;;;7.17;1.80;;;6.40;99.90;;;;;;5009192;28;20225;-88
2020/12/15 06:29:46;;;;;;;11.23;2.00;;;6.50;99.90;;;;;;5001294;28;20316;-90
2020/12/15 06:32:20;;;;;;;9.50;1.93;;;6.50;99.90;;;;;;5000352;28;20495;-90
2020/12/15 06:34:52;;;;;;;7.50;1.93;;;6.60;99.90;;;;;;5015024;28;20267;-88
2020/12/15 06:37:24;;;;;;;5.00;2.03;;;6.60;99.90;;;;;;5014916;28;20697;-88
2020/12/15 06:39:59;;;;;;;6.47;1.67;;;6.50;99.90;;;;;;5004468;28;20233;-90
2020/12/15 06:42:33;;;;;;;8.70;2.30;;;6.50;99.90;;;;;;5014907;28;20205;-90
2020/12/15 06:45:07;;;;;;;4.67;1.80;;;6.50;99.90;;;;;;5022200;28;20202;-89
2020/12/15 06:47:38;;;;;;;6.83;1.63;;;6.40;99.90;;;;;;5021376;28;20229;-89
2020/12/15 06:50:15;;;;;;;6.30;2.13;;;6.40;99.90;;;;;;5005600;28;20230;-89
2020/12/15 06:52:46;;;;;;;7.50;2.10;;;6.40;99.90;;;;;;5009053;28;20197;-89
2020/12/15 06:55:28;;;;;;;5.20;2.33;;;6.40;99.90;;;;;;5023376;28;20273;-90
2020/12/15 06:58:04;;;;;;;7.83;2.00;;;6.40;99.90;;;;;;4998730;28;20257;-89
2020/12/15 07:00:38;;;;;;;6.40;2.13;;;6.40;99.90;;;;;;5012617;28;20229;-89
2020/12/15 07:03:10;;;;;;;7.73;2.00;;;6.40;99.90;;;;;;5004849;28;20233;-89
2020/12/15 07:05:43;;;;;;;7.37;2.03;;;6.40;99.90;;;;;;5005884;28;20205;-89
2020/12/15 07:08:14;;;;;;;3.90;1.70;;;6.40;99.90;;;;;;5008066;28;20224;-89
2020/12/15 07:10:46;;;;;;;6.40;2.10;;;6.40;99.90;;;;;;4990822;28;20229;-89
2020/12/15 07:13:18;;;;;;;9.10;2.03;;;6.40;99.90;;;;;;4989169;28;20257;-90
2020/12/15 07:15:49;;;;;;;8.63;2.20;;;6.40;99.90;;;;;;5002506;28;20213;-89
2020/12/15 07:18:20;;;;;;;7.13;2.07;;;6.50;99.90;;;;;;5032488;28;20205;-92
2020/12/15 07:20:52;;;;;;;8.43;2.13;;;6.50;99.90;;;;;;5015945;28;20198;-89
2020/12/15 07:23:23;;;;;;;5.43;1.60;;;6.50;99.90;;;;;;5030825;28;20197;-91
2020/12/15 07:25:54;;;;;;;5.50;2.10;;;6.40;99.90;;;;;;5014061;28;20207;-93
2020/12/15 07:28:26;;;;;;;6.77;1.77;;;6.30;99.90;;;;;;5018551;28;20204;-89
2020/12/15 07:30:57;;;;;;;5.57;1.70;;;6.40;99.90;;;;;;5013872;28;20263;-89
2020/12/15 07:33:28;;;;;;;6.53;2.03;;;6.40;99.90;;;;;;5006060;28;20190;-93
2020/12/15 07:35:59;;;;;;;8.27;1.40;;;6.40;99.90;;;;;;5022162;28;20191;-90
2020/12/15 07:38:31;;;;;;;6.70;2.03;;;6.30;99.90;;;;;;5037692;28;20288;-88
2020/12/15 07:41:03;;;;;;;6.90;2.23;;;6.30;99.90;;;;;;5021946;28;20226;-87
2020/12/15 07:43:36;;;;;;;6.43;1.73;;;6.20;99.90;;;;;;5037542;28;20252;-89
2020/12/15 07:46:18;;;;;;;5.13;1.50;;;6.20;99.90;;;;;;5037252;28;20222;-91
2020/12/15 07:48:52;;;;;;;3.63;1.30;;;6.20;99.90;;;;;;5037399;28;20185;-90
2020/12/15 07:51:25;;;;;;;5.57;1.90;;;6.20;99.90;;;;;;5037229;28;20221;-89
2020/12/15 07:53:57;;;;;;;3.57;1.30;;;6.30;99.90;;;;;;5036591;28;20228;-89
2020/12/15 07:56:29;;;;;;;5.57;1.20;;;6.30;99.90;;;;;;5020885;28;20202;-90
2020/12/15 07:59:01;;;;;;;4.10;1.13;;;6.40;99.90;;;;;;5020508;28;20222;-89
2020/12/15 08:01:33;;;;;;;5.43;1.13;;;6.50;99.90;;;;;;5036126;28;20267;-90
2020/12/15 08:04:06;;;;;;;6.57;1.40;;;6.40;99.90;;;;;;5035772;28;20221;-89
2020/12/15 08:06:49;;;;;;;5.73;1.20;;;6.40;99.90;;;;;;5017582;28;20210;-89
2020/12/15 08:09:26;;;;;;;6.10;1.60;;;6.30;99.90;;;;;;5013864;28;20205;-89
2020/12/15 08:12:01;;;;;;;4.83;1.53;;;6.40;99.90;;;;;;5030433;28;20198;-89
2020/12/15 08:14:36;;;;;;;4.43;1.40;;;6.40;99.90;;;;;;5030322;28;20283;-87
2020/12/15 08:17:15;;;;;;;4.53;1.50;;;6.40;99.90;;;;;;5029972;28;20209;-89
2020/12/15 08:20:07;;;;;;;4.37;1.20;;;6.40;99.90;;;;;;5029632;28;20216;-89
2020/12/15 08:22:43;;;;;;;3.60;1.40;;;6.40;99.90;;;;;;5029321;28;20210;-90
2020/12/15 08:25:18;;;;;;;6.37;1.50;;;6.40;99.90;;;;;;5033806;28;20224;-90
2020/12/15 08:27:59;;;;;;;3.50;1.27;;;6.40;99.90;;;;;;5036418;28;20201;-90
2020/12/15 08:30:52;;;;;;;6.90;1.20;;;6.40;99.90;;;;;;5030350;28;20261;-90
2020/12/15 08:33:27;;;;;;;4.20;1.23;;;6.40;99.90;;;;;;5015605;28;20253;-89
2020/12/15 08:36:03;;;;;;;4.77;1.53;;;6.30;99.90;;;;;;5012894;28;20205;-90
2020/12/15 08:38:45;;;;;;;4.90;1.57;;;6.40;99.90;;;;;;5011029;28;20210;-89
2020/12/15 08:41:24;;;;;;;1.63;0.93;;;6.30;99.90;;;;;;5006889;28;20345;-90
2020/12/15 08:44:02;;;;;;;2.43;1.07;;;6.40;99.90;;;;;;5004268;28;20297;-90
2020/12/15 08:46:40;;;;;;;6.30;1.33;;;6.40;99.90;;;;;;5004659;28;20272;-89
2020/12/15 08:49:19;;;;;;;2.37;0.80;;;6.40;99.90;;;;;;5004728;28;20202;-89
2020/12/15 08:51:56;;;;;;;6.80;1.23;;;6.40;99.90;;;;;;5005352;28;20225;-88
2020/12/15 08:54:30;;;;;;;6.43;1.60;;;6.40;99.90;;;;;;5015772;28;20230;-89
2020/12/15 08:57:15;;;;;;;3.40;1.17;;;6.40;99.90;;;;;;5002594;28;20249;-89
2020/12/15 08:59:48;;;;;;;3.83;1.10;;;6.40;99.90;;;;;;5002320;28;20246;-86
2020/12/15 09:02:27;;;;;;;5.07;1.23;;;6.40;99.90;;;;;;5003283;28;20233;-89
2020/12/15 09:05:11;;;;;;;5.17;1.37;;;6.40;99.90;;;;;;5003574;28;20311;-89
2020/12/15 09:07:50;;;;;;;4.07;1.13;;;6.40;99.90;;;;;;4995723;28;20292;-89
2020/12/15 09:10:21;;;;;;;5.40;1.20;;;6.40;99.90;;;;;;4990357;28;20238;-90
2020/12/15 09:12:56;;;;;;;3.90;1.07;;;6.40;99.90;;;;;;5018482;28;20273;-89
2020/12/15 09:15:56;;;;;;;4.20;1.17;;;6.40;99.90;;;;;;5005175;28;20726;-88
2020/12/15 09:21:39;;;;;;;3.43;1.13;;;6.40;99.90;;;;;;5033401;28;20218;-89
2020/12/15 09:24:14;;;;;;;6.47;1.10;;;6.50;99.90;;;;;;5032828;28;20210;-88
2020/12/15 09:26:49;;;;;;;3.33;1.20;;;6.50;99.90;;;;;;5025211;28;20212;-89
2020/12/15 09:29:27;;;;;;;4.10;1.57;;;6.50;99.90;;;;;;5002915;28;20233;-89
2020/12/15 09:32:07;;;;;;;3.43;0.90;;;6.50;99.90;;;;;;5024008;28;20882;-89
2020/12/15 09:34:41;;;;;;;4.33;1.30;;;6.50;99.90;;;;;;5020989;28;20208;-88
2020/12/15 09:37:13;;;;;;;6.10;1.40;;;6.60;99.90;;;;;;5015587;28;20263;-89
2020/12/15 09:40:28;;;;;;;7.97;1.00;;;6.50;99.90;;;;;;5025975;28;20209;-88
2020/12/15 09:43:16;;;;;;;3.93;0.90;;;6.60;99.90;;;;;;4973172;28;20211;-89
2020/12/15 09:45:58;;;;;;;5.67;1.10;;;6.40;99.90;;;;;;5023748;28;20281;-89
2020/12/15 09:48:34;;;;;;;3.03;1.17;;;6.40;99.90;;;;;;5007192;28;20209;-89
2020/12/15 09:51:07;;;;;;;7.80;1.47;;;6.40;99.90;;;;;;5023432;28;20233;-89
2020/12/15 09:53:42;;;;;;;2.67;0.90;;;6.40;99.90;;;;;;5019928;28;20211;-89
2020/12/15 09:56:17;;;;;;;5.23;1.20;;;6.40;99.90;;;;;;5007428;28;20212;-89
2020/12/15 09:58:50;;;;;;;4.90;1.30;;;6.40;99.90;;;;;;5021830;28;20227;-89
2020/12/15 10:01:26;;;;;;;4.50;1.00;;;6.40;99.90;;;;;;5021493;28;20215;-89
2020/12/15 10:11:01;;;;;;;4.93;1.27;;;6.30;99.90;;;;;;5001813;28;20245;-88
2020/12/15 10:24:19;;;;;;;3.37;0.97;;;6.60;99.90;;;;;;4988790;28;20257;-88
2020/12/15 10:27:19;;;;;;;;;;;;;;;;;;;;;
2020/12/15 10:29:55;;;;;;;4.00;0.70;;;6.60;99.90;;;;;;5008180;28;20202;-89
2020/12/15 10:35:58;;;;;;;;;;;;;;;;;;;;;
2020/12/15 10:42:03;;;;;;;2.63;0.80;;;6.80;99.90;;;;;;5004617;28;20205;-90
2020/12/15 10:52:19;;;;;;;2.43;0.80;;;7.00;99.90;;;;;;4943871;28;20295;-90
2020/12/15 10:59:09;;;;;;;;;;;;;;;;;;;;;
2020/12/15 11:02:12;;;;;;;;;;;;;;;;;;;;;
2020/12/15 11:05:00;;;;;;;2.90;0.83;;;7.10;99.90;;;;;;5008204;28;20214;-89
2020/12/15 11:08:32;;;;;;;;;;;;;;;;;;;;;
2020/12/15 11:11:24;;;;;;;2.83;0.67;;;7.10;99.90;;;;;;4992199;28;20232;-89
2020/12/15 11:14:33;;;;;;;3.97;0.90;;;7.00;99.90;;;;;;5008164;28;20265;-89
2020/12/15 11:21:10;;;;;;;2.37;0.80;;;7.10;99.90;;;;;;5000042;28;20214;-89
2020/12/15 11:24:22;;;;;;;2.50;0.80;;;7.00;99.90;;;;;;4941039;29;20318;-88
2020/12/15 11:27:48;;;;;;;3.53;0.80;;;7.00;99.90;;;;;;5012446;28;20204;-89
2020/12/15 11:30:36;;;;;;;3.90;0.60;;;7.00;99.90;;;;;;5005509;28;20236;-89
2020/12/15 11:37:00;;;;;;;1.73;0.93;;;7.00;99.90;;;;;;4998888;28;20206;-90
2020/12/15 11:43:01;;;;;;;1.23;0.70;;;7.10;99.90;;;;;;4940787;28;20218;-88
2020/12/15 11:46:14;;;;;;;1.07;0.30;;;7.20;99.90;;;;;;4999544;28;20211;-88
2020/12/15 11:55:49;;;;;;;2.47;0.60;;;7.20;99.90;;;;;;4994136;28;20224;-87
2020/12/15 12:02:27;;;;;;;2.20;0.67;;;7.20;99.90;;;;;;5006594;28;20211;-88
2020/12/15 12:05:47;;;;;;;2.90;0.70;;;7.10;99.90;;;;;;4953400;28;20199;-88
2020/12/15 12:08:39;;;;;;;0.50;0.40;;;7.00;99.90;;;;;;5019116;28;20272;-89
2020/12/15 12:11:50;;;;;;;;;;;;;;;;;;;;;
2020/12/15 12:14:41;;;;;;;2.07;0.80;;;7.30;99.90;;;;;;5002280;28;20318;-89
2020/12/15 12:17:41;;;;;;;3.53;0.60;;;7.40;99.90;;;;;;4997127;28;20221;-88
2020/12/15 12:20:57;;;;;;;1.87;0.50;;;7.40;99.90;;;;;;4968559;28;20221;-88
2020/12/15 12:24:17;;;;;;;3.30;0.53;;;7.40;99.90;;;;;;5007957;28;20213;-88
2020/12/15 12:27:28;;;;;;;4.17;0.70;;;7.40;99.90;;;;;;4986826;28;20205;-89
2020/12/15 12:31:07;;;;;;;;;;;;;;;;;;;;;
2020/12/15 12:34:15;;;;;;;3.83;0.67;;;7.50;99.90;;;;;;5016444;28;20257;-89
2020/12/15 12:37:27;;;;;;;1.27;0.67;;;7.50;99.90;;;;;;4981767;28;20204;-88
2020/12/15 12:40:21;;;;;;;1.57;0.60;;;7.40;99.90;;;;;;5004588;28;20210;-91
2020/12/15 12:43:17;;;;;;;3.10;0.50;;;7.20;99.90;;;;;;5018521;28;20216;-90
2020/12/15 12:46:22;;;;;;;2.33;0.90;;;7.10;99.90;;;;;;5024110;28;20209;-90
2020/12/15 12:49:23;;;;;;;1.63;0.90;;;7.20;99.90;;;;;;5018178;28;20206;-90
2020/12/15 12:55:15;;;;;;;2.53;0.77;;;6.90;99.90;;;;;;5002745;28;20268;-90
2020/12/15 12:58:09;;;;;;;1.70;0.80;;;6.80;99.90;;;;;;5005578;28;20218;-89
2020/12/15 13:01:00;;;;;;;1.47;0.83;;;6.70;99.90;;;;;;5013836;28;20225;-88
2020/12/15 13:03:50;;;;;;;;;;;;;;;;;;;;;
2020/12/15 13:13:38;;;;;;;4.20;0.80;;;6.30;99.90;;;;;;5023074;28;20218;-89
2020/12/15 13:16:30;;;;;;;3.90;1.00;;;6.20;99.90;;;;;;5023651;28;20197;-87
2020/12/15 13:19:20;;;;;;;3.63;0.97;;;6.10;99.90;;;;;;5006211;28;20198;-90
2020/12/15 13:22:13;;;;;;;2.40;0.80;;;6.00;99.90;;;;;;5004068;28;20260;-89
2020/12/15 13:25:19;;;;;;;2.80;0.90;;;5.90;99.90;;;;;;5022186;28;20276;-88
2020/12/15 13:28:24;;;;;;;2.37;0.90;;;5.90;99.90;;;;;;5024293;28;20210;-89
2020/12/15 13:31:32;;;;;;;3.40;0.87;;;5.80;99.90;;;;;;5021037;28;20253;-90
2020/12/15 13:37:23;;;;;;;3.47;1.30;;;5.80;99.90;;;;;;5010579;28;20206;-90
2020/12/15 13:43:33;;;;;;;4.77;1.37;;;5.80;99.90;;;;;;4992007;28;20213;-89
2020/12/15 13:46:36;;;;;;;4.40;1.40;;;5.70;99.90;;;;;;4999244;28;20204;-89
2020/12/15 13:49:27;;;;;;;2.07;1.37;;;5.80;99.90;;;;;;4997828;28;20217;-90
2020/12/15 13:52:39;;;;;;;4.97;1.23;;;5.70;99.90;;;;;;5003702;28;20237;-89
2020/12/15 13:55:58;;;;;;;2.37;1.43;;;5.70;99.90;;;;;;4990218;28;20213;-87
2020/12/15 13:58:48;;;;;;;3.53;1.50;;;5.80;99.90;;;;;;5004454;28;20206;-88
2020/12/15 14:04:12;;;;;;;2.63;1.33;;;5.70;99.90;;;;;;5020885;28;20214;-89
2020/12/15 14:06:54;;;;;;;2.77;1.37;;;5.50;99.90;;;;;;5007677;28;20218;-90
2020/12/15 14:09:59;;;;;;;8.20;2.20;;;5.40;99.90;;;;;;5010419;28;20692;-91
2020/12/15 14:12:41;;;;;;;2.50;1.53;;;5.40;99.90;;;;;;5024398;28;20217;-91
2020/12/15 14:15:40;;;;;;;3.47;1.50;;;5.40;99.90;;;;;;5000088;28;20202;-91
2020/12/15 14:18:17;;;;;;;1.67;1.40;;;5.30;99.90;;;;;;5005680;28;20210;-90
2020/12/15 14:20:57;;;;;;;2.37;1.10;;;5.40;99.90;;;;;;5011691;28;20213;-88
2020/12/15 14:23:35;;;;;;;3.73;1.20;;;5.40;99.90;;;;;;4997353;28;20206;-90
2020/12/15 14:26:19;;;;;;;1.43;0.90;;;5.40;99.90;;;;;;5016701;28;20182;-89
2020/12/15 14:29:08;;;;;;;1.93;0.90;;;5.40;99.90;;;;;;5021380;28;20198;-89
2020/12/15 14:31:59;;;;;;;2.73;0.80;;;5.50;99.90;;;;;;5025110;28;20257;-91
2020/12/15 14:34:41;;;;;;;3.07;1.13;;;5.50;99.90;;;;;;5010007;28;20229;-89
2020/12/15 14:37:19;;;;;;;3.77;1.13;;;5.30;99.90;;;;;;5010503;28;20343;-89
2020/12/15 14:39:56;;;;;;;1.67;0.73;;;5.50;99.90;;;;;;4995907;28;20229;-89
2020/12/15 14:42:41;;;;;;;1.10;0.90;;;5.40;99.90;;;;;;5020222;28;20259;-90
2020/12/15 14:45:35;;;;;;;;;;;;;;;;;;;;;
2020/12/15 14:48:18;;;;;;;1.47;0.80;;;5.60;99.90;;;;;;5001582;28;20758;-90
2020/12/15 14:51:01;;;;;;;2.30;0.97;;;5.60;99.90;;;;;;5017312;28;20233;-88
2020/12/15 14:53:41;;;;;;;2.03;0.80;;;5.60;99.90;;;;;;5017931;28;20266;-88
2020/12/15 14:56:12;;;;;;;2.57;0.87;;;5.70;99.90;;;;;;5006727;28;20562;-88
2020/12/15 14:58:54;;;;;;;1.97;0.70;;;5.70;99.90;;;;;;4990149;28;20835;-89
2020/12/15 15:01:46;;;;;;;1.50;0.70;;;5.70;99.90;;;;;;5018816;28;20213;-88
2020/12/15 15:04:46;;;;;;;;;;;;;;;;;;;;;
2020/12/15 15:07:27;;;;;;;2.23;0.97;;;5.70;99.90;;;;;;5001639;28;20221;-88
2020/12/15 15:10:27;;;;;;;2.60;1.23;;;5.70;99.90;;;;;;5018737;28;20994;-88
2020/12/15 15:13:12;;;;;;;1.57;0.87;;;5.70;99.90;;;;;;5001605;28;20214;-87
2020/12/15 15:16:03;;;;;;;0.90;0.60;;;5.70;99.90;;;;;;5009965;28;20282;-90
2020/12/15 15:18:49;;;;;;;1.13;0.77;;;5.60;99.90;;;;;;5006636;28;20197;-90
2020/12/15 15:21:28;;;;;;;1.10;0.87;;;5.60;99.90;;;;;;5025626;28;20287;-90
2020/12/15 15:24:08;;;;;;;2.87;0.90;;;5.70;99.90;;;;;;4996105;28;20206;-89
2020/12/15 15:26:54;;;;;;;2.83;0.83;;;5.70;99.90;;;;;;5016990;28;20240;-89
2020/12/15 15:29:43;;;;;;;2.30;0.80;;;5.70;99.90;;;;;;5012188;28;20298;-89